createdAt,value
2018-01-06T00:01:57.599Z,5.40
2018-01-06T00:05:08.218Z,5.40
2018-01-06T00:08:19.135Z,5.50
2018-01-06T00:11:29.667Z,5.60
2018-01-06T00:14:39.713Z,5.60
2018-01-06T00:17:50.496Z,5.80
2018-01-06T00:21:00.371Z,5.80
2018-01-06T00:24:10.964Z,6.10
2018-01-06T00:27:21.239Z,6.00
2018-01-06T00:30:31.394Z,6.10
2018-01-06T00:33:42.709Z,6.20
2018-01-06T00:36:53.405Z,6.20
2018-01-06T00:40:06.054Z,6.20
2018-01-06T00:43:15.879Z,6.20
2018-01-06T00:46:25.786Z,6.20
2018-01-06T00:49:35.563Z,6.20
2018-01-06T00:52:45.643Z,6.30
2018-01-06T00:55:55.890Z,6.40
2018-01-06T00:59:06.648Z,6.30
2018-01-06T01:02:16.850Z,6.30
2018-01-06T01:05:26.635Z,6.30
2018-01-06T01:08:38.094Z,6.30
2018-01-06T01:11:47.927Z,6.30
2018-01-06T01:14:57.810Z,6.30
2018-01-06T01:18:08.505Z,6.30
2018-01-06T01:21:19.199Z,6.30
2018-01-06T01:24:29.227Z,6.30
2018-01-06T01:27:39.753Z,6.30
2018-01-06T01:30:49.843Z,6.30
2018-01-06T01:34:00.666Z,6.30
2018-01-06T01:37:10.849Z,6.30
2018-01-06T01:40:21.696Z,6.40
2018-01-06T01:43:31.652Z,6.40
2018-01-06T01:46:41.571Z,6.40
2018-01-06T01:49:51.343Z,6.40
2018-01-06T01:53:01.294Z,6.30
2018-01-06T01:56:11.839Z,6.30
2018-01-06T01:59:22.010Z,6.30
2018-01-06T02:02:32.643Z,6.30
2018-01-06T02:05:42.728Z,6.30
2018-01-06T02:08:53.022Z,6.30
2018-01-06T02:12:03.098Z,6.30
2018-01-06T02:15:13.710Z,6.30
2018-01-06T02:18:24.414Z,6.30
2018-01-06T02:21:34.086Z,6.30
2018-01-06T02:24:45.743Z,6.30
2018-01-06T02:27:56.210Z,6.30
2018-01-06T02:31:06.214Z,6.30
2018-01-06T02:34:16.860Z,6.40
2018-01-06T02:37:27.750Z,6.40
2018-01-06T02:40:37.745Z,6.40
2018-01-06T02:43:48.387Z,6.40
2018-01-06T02:46:58.531Z,6.40
2018-01-06T02:50:08.546Z,6.50
2018-01-06T02:53:18.506Z,6.40
2018-01-06T02:56:28.350Z,6.40
2018-01-06T02:59:38.683Z,6.40
2018-01-06T03:02:48.390Z,6.50
2018-01-06T03:05:58.185Z,6.50
2018-01-06T03:09:09.239Z,6.40
2018-01-06T03:12:19.593Z,6.40
2018-01-06T03:15:30.530Z,6.40
2018-01-06T03:18:40.955Z,6.40
2018-01-06T03:21:51.006Z,6.40
2018-01-06T03:25:00.987Z,6.40
2018-01-06T03:28:11.018Z,6.30
2018-01-06T03:31:21.706Z,6.30
2018-01-06T03:34:31.757Z,6.30
2018-01-06T03:37:41.661Z,6.30
2018-01-06T03:40:51.447Z,6.30
2018-01-06T03:44:01.186Z,6.20
2018-01-06T03:47:10.898Z,6.30
2018-01-06T03:50:20.629Z,6.30
2018-01-06T03:53:30.445Z,6.30
2018-01-06T03:56:40.500Z,6.20
2018-01-06T03:59:50.213Z,6.20
2018-01-06T04:03:01.216Z,6.20
2018-01-06T04:06:11.440Z,6.20
2018-01-06T04:09:21.230Z,6.20
2018-01-06T04:12:31.161Z,6.20
2018-01-06T04:15:41.808Z,6.10
2018-01-06T04:18:52.051Z,6.10
2018-01-06T04:22:01.955Z,6.10
2018-01-06T04:25:11.900Z,6.00
2018-01-06T04:28:21.723Z,6.00
2018-01-06T04:31:32.560Z,6.00
2018-01-06T04:34:42.867Z,6.00
2018-01-06T04:37:52.552Z,6.10
2018-01-06T04:41:02.363Z,6.10
2018-01-06T04:44:12.533Z,6.20
2018-01-06T04:47:23.196Z,6.20
2018-01-06T04:50:35.005Z,6.20
2018-01-06T04:53:44.994Z,6.20
2018-01-06T04:56:54.721Z,6.20
2018-01-06T05:00:03.888Z,6.20
2018-01-06T05:03:14.965Z,6.20
2018-01-06T05:06:25.034Z,6.10
2018-01-06T05:09:34.774Z,6.10
2018-01-06T05:12:44.777Z,6.00
2018-01-06T05:15:54.329Z,6.00
2018-01-06T05:19:04.779Z,5.90
2018-01-06T05:22:14.871Z,5.90
2018-01-06T05:25:24.803Z,5.80
2018-01-06T05:28:34.623Z,5.80
2018-01-06T05:31:44.600Z,5.80
2018-01-06T05:34:54.372Z,5.70
2018-01-06T05:38:04.370Z,5.60
2018-01-06T05:41:14.411Z,5.50
2018-01-06T05:44:24.159Z,5.50
2018-01-06T05:47:34.066Z,5.50
2018-01-06T05:50:44.043Z,5.50
2018-01-06T05:53:54.991Z,5.30
2018-01-06T05:57:05.318Z,5.30
2018-01-06T06:00:15.162Z,5.30
2018-01-06T06:03:25.538Z,5.20
2018-01-06T06:06:36.730Z,5.10
2018-01-06T06:09:46.854Z,5.00
2018-01-06T06:12:56.631Z,5.00
2018-01-06T06:16:06.602Z,5.00
2018-01-06T06:19:16.375Z,4.90
2018-01-06T06:22:27.048Z,4.80
2018-01-06T06:25:37.221Z,4.70
2018-01-06T06:28:47.042Z,4.70
2018-01-06T06:31:57.685Z,4.50
2018-01-06T06:35:08.684Z,4.50
2018-01-06T06:38:19.513Z,4.50
2018-01-06T06:41:30.222Z,4.50
2018-01-06T06:44:40.539Z,4.50
2018-01-06T06:47:50.580Z,4.50
2018-01-06T06:51:00.367Z,4.50
2018-01-06T06:54:10.256Z,4.40
2018-01-06T06:57:20.330Z,4.20
2018-01-06T07:00:31.234Z,4.10
2018-01-06T07:03:41.267Z,4.10
2018-01-06T07:06:51.638Z,4.10
2018-01-06T07:10:01.983Z,4.00
2018-01-06T07:13:12.814Z,4.00
2018-01-06T07:16:22.595Z,3.90
2018-01-06T07:19:32.524Z,3.80
2018-01-06T07:22:42.381Z,3.70
2018-01-06T07:25:53.804Z,3.70
2018-01-06T07:29:03.935Z,3.70
2018-01-06T07:32:14.575Z,3.60
2018-01-06T07:35:24.788Z,3.60
2018-01-06T07:38:35.432Z,3.60
2018-01-06T07:41:45.652Z,3.60
2018-01-06T07:44:55.732Z,3.60
2018-01-06T07:48:06.036Z,3.60
2018-01-06T07:51:15.838Z,3.60
2018-01-06T07:54:25.753Z,3.50
2018-01-06T07:57:35.663Z,3.50
2018-01-06T08:00:45.643Z,3.50
2018-01-06T08:03:55.725Z,3.50
2018-01-06T08:07:05.586Z,3.60
2018-01-06T08:10:15.660Z,3.50
2018-01-06T08:13:25.423Z,3.50
2018-01-06T08:16:36.663Z,3.40
2018-01-06T08:19:48.026Z,3.40
2018-01-06T08:22:58.248Z,3.40
2018-01-06T08:26:08.816Z,3.40
2018-01-06T08:29:18.925Z,3.40
2018-01-06T08:32:28.884Z,3.50
2018-01-06T08:35:38.638Z,3.50
2018-01-06T08:38:48.540Z,3.50
2018-01-06T08:41:59.496Z,3.70
2018-01-06T08:45:09.590Z,3.70
2018-01-06T08:48:20.240Z,3.70
2018-01-06T08:51:30.112Z,3.80
2018-01-06T08:54:39.929Z,3.90
2018-01-06T08:57:50.690Z,3.90
2018-01-06T09:01:02.509Z,3.80
2018-01-06T09:04:13.516Z,3.80
2018-01-06T09:07:23.706Z,3.90
2018-01-06T09:10:33.648Z,4.00
2018-01-06T09:13:43.893Z,4.00
2018-01-06T09:16:55.048Z,4.20
2018-01-06T09:20:05.668Z,4.20
2018-01-06T09:23:15.672Z,4.20
2018-01-06T09:26:26.316Z,4.30
2018-01-06T09:29:36.093Z,4.30
2018-01-06T09:32:45.857Z,4.40
2018-01-06T09:35:56.211Z,4.50
2018-01-06T09:39:06.892Z,4.70
2018-01-06T09:42:16.667Z,4.80
2018-01-06T09:48:38.311Z,5.20
2018-01-06T09:51:48.915Z,5.40
2018-01-06T09:54:59.241Z,5.70
2018-01-06T09:58:10.900Z,5.80
2018-01-06T10:01:21.359Z,5.80
2018-01-06T10:04:32.351Z,6.10
2018-01-06T10:07:42.589Z,6.10
2018-01-06T10:10:52.768Z,6.10
2018-01-06T10:14:03.035Z,6.20
2018-01-06T10:17:12.890Z,6.30
2018-01-06T10:20:22.634Z,6.40
2018-01-06T10:23:32.479Z,6.50
2018-01-06T10:26:42.557Z,6.50
2018-01-06T10:29:52.606Z,6.60
2018-01-06T10:33:03.013Z,6.60
2018-01-06T10:36:12.811Z,6.60
2018-01-06T10:39:23.793Z,6.70
2018-01-06T10:42:33.665Z,6.70
2018-01-06T10:45:43.738Z,6.70
2018-01-06T10:48:53.443Z,6.80
2018-01-06T10:52:03.377Z,6.80
2018-01-06T10:55:14.149Z,6.90
2018-01-06T10:58:24.772Z,7.00
2018-01-06T11:01:40.448Z,7.00
2018-01-06T11:04:50.798Z,7.00
2018-01-06T11:08:00.617Z,7.10
2018-01-06T11:11:10.842Z,7.10
2018-01-06T11:14:20.762Z,7.20
2018-01-06T11:17:30.571Z,7.20
2018-01-06T11:20:40.806Z,7.20
2018-01-06T11:23:50.759Z,7.30
2018-01-06T11:27:00.414Z,7.30
2018-01-06T11:30:10.520Z,7.30
2018-01-06T11:33:20.514Z,7.30
2018-01-06T11:36:30.348Z,7.30
2018-01-06T11:39:40.286Z,7.40
2018-01-06T11:42:50.401Z,7.40
2018-01-06T11:46:00.502Z,7.30
2018-01-06T11:49:11.259Z,7.40
2018-01-06T11:52:22.378Z,7.40
2018-01-06T11:55:33.234Z,7.40
2018-01-06T11:58:43.305Z,7.40
2018-01-06T12:01:53.925Z,7.40
2018-01-06T12:05:03.681Z,7.40
2018-01-06T12:08:13.728Z,7.50
2018-01-06T12:11:23.661Z,7.50
2018-01-06T12:14:34.372Z,7.50
2018-01-06T12:17:45.206Z,7.50
2018-01-06T12:20:55.290Z,7.50
2018-01-06T12:24:06.137Z,7.60
2018-01-06T12:27:16.294Z,7.60
2018-01-06T12:30:26.815Z,7.70
2018-01-06T12:33:36.973Z,7.60
2018-01-06T12:36:46.895Z,7.70
2018-01-06T12:39:57.431Z,7.70
2018-01-06T12:43:07.917Z,7.70
2018-01-06T12:46:18.012Z,7.70
2018-01-06T12:49:27.940Z,7.70
2018-01-06T12:52:38.776Z,7.70
2018-01-06T12:55:49.080Z,7.70
2018-01-06T12:58:58.940Z,7.70
2018-01-06T13:02:09.608Z,7.70
2018-01-06T13:05:19.775Z,7.70
2018-01-06T13:08:29.931Z,7.70
2018-01-06T13:11:40.490Z,7.70
2018-01-06T13:14:50.338Z,7.70
2018-01-06T13:18:00.078Z,7.70
2018-01-06T13:21:11.548Z,7.70
2018-01-06T13:24:21.887Z,7.70
2018-01-06T13:27:32.262Z,7.80
2018-01-06T13:30:42.001Z,7.70
2018-01-06T13:33:52.586Z,7.80
2018-01-06T13:37:03.504Z,7.70
2018-01-06T13:40:13.841Z,7.70
2018-01-06T13:43:24.617Z,7.70
2018-01-06T13:46:34.751Z,7.70
2018-01-06T13:49:45.030Z,7.70
2018-01-06T13:52:54.784Z,7.70
2018-01-06T13:56:05.719Z,7.70
2018-01-06T13:59:15.848Z,7.70
2018-01-06T14:02:26.632Z,7.70
2018-01-06T14:05:37.048Z,7.70
2018-01-06T14:08:46.976Z,7.70
2018-01-06T14:11:56.859Z,7.80
2018-01-06T14:15:07.185Z,7.90
2018-01-06T14:18:17.885Z,7.90
2018-01-06T14:21:27.675Z,7.90
2018-01-06T14:24:39.598Z,7.90
2018-01-06T14:27:50.137Z,8.00
2018-01-06T14:31:00.446Z,7.80
2018-01-06T14:34:11.634Z,7.70
2018-01-06T14:37:21.750Z,7.70
2018-01-06T14:40:31.598Z,7.80
2018-01-06T14:43:41.672Z,7.80
2018-01-06T14:46:51.815Z,7.60
2018-01-06T14:50:02.507Z,7.60
2018-01-06T14:53:12.330Z,7.60
2018-01-06T14:56:22.281Z,7.50
2018-01-06T14:59:32.315Z,7.50
2018-01-06T15:02:42.259Z,7.50
2018-01-06T15:05:52.210Z,7.40
2018-01-06T15:09:02.298Z,7.40
2018-01-06T15:12:12.196Z,7.30
2018-01-06T15:15:22.794Z,7.30
2018-01-06T15:18:34.109Z,7.30
2018-01-06T15:21:44.268Z,7.20
2018-01-06T15:24:54.870Z,7.30
2018-01-06T15:28:04.669Z,7.30
2018-01-06T15:31:14.480Z,7.30
2018-01-06T15:34:24.360Z,7.20
2018-01-06T15:37:35.272Z,7.10
2018-01-06T15:40:45.491Z,7.10
2018-01-06T15:43:55.512Z,7.10
2018-01-06T15:47:05.307Z,7.00
2018-01-06T15:50:15.078Z,7.00
2018-01-06T15:53:25.008Z,7.00
2018-01-06T15:56:35.337Z,7.00
2018-01-06T15:59:45.313Z,7.00
2018-01-06T16:02:55.331Z,6.90
2018-01-06T16:06:05.029Z,6.90
2018-01-06T16:09:14.937Z,6.90
2018-01-06T16:12:24.940Z,6.90
2018-01-06T16:15:34.869Z,6.80
2018-01-06T16:18:44.764Z,6.80
2018-01-06T16:21:54.559Z,6.80
2018-01-06T16:25:04.440Z,6.80
2018-01-06T16:28:14.569Z,6.80
2018-01-06T16:31:24.564Z,6.70
2018-01-06T16:34:35.515Z,6.60
2018-01-06T16:37:45.602Z,6.60
2018-01-06T16:40:55.817Z,6.60
2018-01-06T16:44:06.180Z,6.60
2018-01-06T16:47:16.677Z,6.50
2018-01-06T16:50:27.014Z,6.50
2018-01-06T16:53:37.708Z,6.40
2018-01-06T16:56:47.590Z,6.50
2018-01-06T16:59:57.302Z,6.40
2018-01-06T17:03:07.288Z,6.40
2018-01-06T17:06:17.174Z,6.40
2018-01-06T17:09:27.930Z,6.40
2018-01-06T17:12:37.782Z,6.40
2018-01-06T17:15:47.810Z,6.30
2018-01-06T17:18:57.803Z,6.30
2018-01-06T17:22:07.566Z,6.30
2018-01-06T17:25:17.489Z,6.40
2018-01-06T17:28:28.238Z,6.40
2018-01-06T17:31:38.742Z,6.30
2018-01-06T17:34:48.709Z,6.40
2018-01-06T17:37:58.697Z,6.40
2018-01-06T17:41:08.918Z,6.40
2018-01-06T17:44:19.883Z,6.30
2018-01-06T17:47:29.920Z,6.30
2018-01-06T17:50:39.627Z,6.30
2018-01-06T17:53:49.670Z,6.30
2018-01-06T17:56:59.578Z,6.30
2018-01-06T18:00:09.453Z,6.30
2018-01-06T18:03:19.292Z,6.30
2018-01-06T18:06:29.868Z,6.30
2018-01-06T18:09:40.739Z,6.30
2018-01-06T18:12:50.849Z,6.20
2018-01-06T18:16:00.897Z,6.20
2018-01-06T18:19:11.590Z,6.20
2018-01-06T18:22:22.562Z,6.20
2018-01-06T18:25:32.976Z,6.10
2018-01-06T18:28:43.565Z,6.20
2018-01-06T18:31:54.374Z,6.10
2018-01-06T18:35:05.473Z,6.20
2018-01-06T18:38:15.988Z,6.20
2018-01-06T18:41:25.932Z,6.20
2018-01-06T18:44:35.923Z,6.20
2018-01-06T18:47:45.902Z,6.20
2018-01-06T18:50:55.968Z,6.20
2018-01-06T18:54:06.013Z,6.30
2018-01-06T18:57:15.828Z,6.20
2018-01-06T19:00:25.784Z,6.20
2018-01-06T19:03:37.276Z,6.20
2018-01-06T19:06:47.547Z,6.20
2018-01-06T19:09:58.230Z,6.10
2018-01-06T19:13:08.392Z,6.10
2018-01-06T19:16:19.098Z,6.10
2018-01-06T19:19:29.028Z,6.10
2018-01-06T19:22:39.863Z,6.00
2018-01-06T19:25:51.270Z,6.00
2018-01-06T19:29:01.499Z,5.90
2018-01-06T19:32:11.499Z,5.90
2018-01-06T19:35:21.373Z,5.90
2018-01-06T19:38:31.404Z,5.90
2018-01-06T19:41:41.270Z,5.90
2018-01-06T19:44:51.018Z,5.90
2018-01-06T19:48:00.894Z,5.90
2018-01-06T19:51:10.835Z,5.90
2018-01-06T19:54:20.618Z,5.90
2018-01-06T19:57:30.588Z,5.90
2018-01-06T20:00:41.196Z,5.90
2018-01-06T20:03:51.123Z,5.90
2018-01-06T20:07:01.055Z,5.90
2018-01-06T20:10:11.093Z,5.90
2018-01-06T20:13:21.734Z,5.80
2018-01-06T20:16:32.772Z,5.90
2018-01-06T20:19:43.652Z,5.90
2018-01-06T20:22:53.700Z,5.80
2018-01-06T20:26:03.544Z,5.90
2018-01-06T20:29:14.268Z,5.80
2018-01-06T20:32:24.125Z,5.90
2018-01-06T20:35:35.091Z,5.80
2018-01-06T20:38:44.999Z,5.80
2018-01-06T20:41:55.383Z,5.80
2018-01-06T20:45:05.574Z,5.80
2018-01-06T20:48:15.555Z,5.80
2018-01-06T20:51:26.130Z,5.80
2018-01-06T20:54:36.788Z,5.80
2018-01-06T20:57:47.228Z,5.70
2018-01-06T21:00:57.334Z,5.80
2018-01-06T21:04:07.350Z,5.70
2018-01-06T21:07:17.437Z,5.70
2018-01-06T21:10:28.062Z,5.70
2018-01-06T21:13:38.158Z,5.70
2018-01-06T21:16:48.186Z,5.80
2018-01-06T21:19:58.201Z,5.70
2018-01-06T21:23:08.497Z,5.70
2018-01-06T21:26:18.354Z,5.80
2018-01-06T21:29:28.383Z,5.80
2018-01-06T21:32:38.958Z,5.70
2018-01-06T21:35:49.251Z,5.70
2018-01-06T21:38:59.142Z,5.60
2018-01-06T21:42:10.599Z,5.70
2018-01-06T21:45:20.671Z,5.70
2018-01-06T21:48:30.635Z,5.80
2018-01-06T21:51:40.816Z,5.70
2018-01-06T21:54:51.610Z,5.70
2018-01-06T21:58:01.534Z,5.60
2018-01-06T22:01:11.503Z,5.60
2018-01-06T22:04:21.360Z,5.60
2018-01-06T22:07:31.477Z,5.60
2018-01-06T22:10:42.205Z,5.60
2018-01-06T22:13:52.242Z,5.60
2018-01-06T22:17:03.016Z,5.50
2018-01-06T22:20:13.309Z,5.50
2018-01-06T22:23:24.214Z,5.60
2018-01-06T22:26:34.348Z,5.60
2018-01-06T22:29:44.952Z,5.50
2018-01-06T22:32:55.526Z,5.50
2018-01-06T22:36:05.908Z,5.50
2018-01-06T22:39:16.433Z,5.50
2018-01-06T22:42:26.832Z,5.50
2018-01-06T22:45:37.546Z,5.50
2018-01-06T22:48:48.509Z,5.60
2018-01-06T22:51:58.585Z,5.50
2018-01-06T22:55:09.467Z,5.50
2018-01-06T22:58:19.356Z,5.50
2018-01-06T23:01:30.269Z,5.50
2018-01-06T23:04:40.386Z,5.50
2018-01-06T23:07:50.282Z,5.50
2018-01-06T23:11:00.537Z,5.50
2018-01-06T23:14:10.495Z,5.50
2018-01-06T23:17:20.564Z,5.40
2018-01-06T23:23:42.202Z,5.40
2018-01-06T23:26:51.995Z,5.40
2018-01-06T23:30:01.910Z,5.40
2018-01-06T23:33:12.590Z,5.40
2018-01-06T23:36:23.434Z,5.30
2018-01-06T23:39:34.755Z,5.30
2018-01-06T23:42:46.173Z,5.30
2018-01-06T23:45:56.062Z,5.30
2018-01-06T23:49:06.705Z,5.30
2018-01-06T23:52:16.711Z,5.30
2018-01-06T23:55:27.490Z,5.30
2018-01-06T23:58:37.430Z,5.30
